sensor_id;sensor_type;location;lat;lon;timestamp;pressure;altitude;pressure_sealevel;temperature;humidity
52839;BME280;39219;53.678;9.856;2022-10-26T00:00:32;101424.00;;;9.90;100.00
52839;BME280;39219;53.678;9.856;2022-10-26T00:02:58;101421.31;;;9.92;100.00
52839;BME280;39219;53.678;9.856;2022-10-26T00:05:25;101417.63;;;10.04;100.00
52839;BME280;39219;53.678;9.856;2022-10-26T00:07:51;101420.31;;;10.01;100.00
52839;BME280;39219;53.678;9.856;2022-10-26T00:10:17;101420.41;;;9.93;100.00
52839;BME280;39219;53.678;9.856;2022-10-26T00:12:47;101421.38;;;9.87;100.00
52839;BME280;39219;53.678;9.856;2022-10-26T00:15:14;101401.22;;;9.63;100.00
52839;BME280;39219;53.678;9.856;2022-10-26T00:17:41;101418.13;;;9.56;100.00
52839;BME280;39219;53.678;9.856;2022-10-26T00:20:08;101413.81;;;9.38;100.00
52839;BME280;39219;53.678;9.856;2022-10-26T00:22:35;101423.66;;;9.26;100.00
52839;BME280;39219;53.678;9.856;2022-10-26T00:25:01;101416.56;;;9.27;100.00
52839;BME280;39219;53.678;9.856;2022-10-26T00:27:28;101417.25;;;9.52;100.00
52839;BME280;39219;53.678;9.856;2022-10-26T00:29:54;101421.47;;;9.75;100.00
52839;BME280;39219;53.678;9.856;2022-10-26T00:32:21;101422.25;;;9.85;100.00
52839;BME280;39219;53.678;9.856;2022-10-26T00:34:48;101417.88;;;9.82;100.00
52839;BME280;39219;53.678;9.856;2022-10-26T00:37:15;101414.34;;;9.80;100.00
52839;BME280;39219;53.678;9.856;2022-10-26T00:39:41;101427.63;;;9.80;100.00
52839;BME280;39219;53.678;9.856;2022-10-26T00:42:10;101427.56;;;9.85;100.00
52839;BME280;39219;53.678;9.856;2022-10-26T00:44:55;101421.41;;;9.84;100.00
52839;BME280;39219;53.678;9.856;2022-10-26T00:47:32;101428.31;;;9.98;100.00
52839;BME280;39219;53.678;9.856;2022-10-26T00:50:04;101419.34;;;10.13;100.00
52839;BME280;39219;53.678;9.856;2022-10-26T00:52:32;101417.44;;;10.22;100.00
52839;BME280;39219;53.678;9.856;2022-10-26T00:54:58;101419.06;;;10.36;100.00
52839;BME280;39219;53.678;9.856;2022-10-26T00:57:25;101416.38;;;10.42;100.00
52839;BME280;39219;53.678;9.856;2022-10-26T00:59:53;101418.09;;;10.45;100.00
52839;BME280;39219;53.678;9.856;2022-10-26T01:02:21;101417.16;;;10.50;100.00
52839;BME280;39219;53.678;9.856;2022-10-26T01:04:48;101420.78;;;10.43;100.00
52839;BME280;39219;53.678;9.856;2022-10-26T01:07:16;101412.88;;;10.35;100.00
52839;BME280;39219;53.678;9.856;2022-10-26T01:09:43;101417.31;;;10.35;100.00
52839;BME280;39219;53.678;9.856;2022-10-26T01:12:10;101410.25;;;10.34;100.00
52839;BME280;39219;53.678;9.856;2022-10-26T01:14:37;101418.34;;;10.21;100.00
52839;BME280;39219;53.678;9.856;2022-10-26T01:17:14;101415.75;;;10.15;100.00
52839;BME280;39219;53.678;9.856;2022-10-26T01:20:03;101414.06;;;10.08;100.00
52839;BME280;39219;53.678;9.856;2022-10-26T01:22:43;101419.44;;;10.02;100.00
52839;BME280;39219;53.678;9.856;2022-10-26T01:25:17;101412.38;;;10.01;100.00
52839;BME280;39219;53.678;9.856;2022-10-26T01:27:51;101408.94;;;9.91;100.00
52839;BME280;39219;53.678;9.856;2022-10-26T01:30:22;101408.19;;;9.76;100.00
52839;BME280;39219;53.678;9.856;2022-10-26T01:33:19;101403.72;;;9.83;100.00
52839;BME280;39219;53.678;9.856;2022-10-26T01:35:52;101405.53;;;9.76;100.00
52839;BME280;39219;53.678;9.856;2022-10-26T01:38:25;101399.38;;;9.74;100.00
52839;BME280;39219;53.678;9.856;2022-10-26T01:40:59;101394.94;;;9.73;100.00
52839;BME280;39219;53.678;9.856;2022-10-26T01:43:32;101401.31;;;9.57;100.00
52839;BME280;39219;53.678;9.856;2022-10-26T01:46:02;101398.81;;;9.38;100.00
52839;BME280;39219;53.678;9.856;2022-10-26T01:48:31;101398.13;;;9.11;100.00
52839;BME280;39219;53.678;9.856;2022-10-26T01:50:58;101393.84;;;8.90;100.00
52839;BME280;39219;53.678;9.856;2022-10-26T01:53:26;101400.06;;;8.87;100.00
52839;BME280;39219;53.678;9.856;2022-10-26T01:55:54;101399.16;;;8.87;100.00
52839;BME280;39219;53.678;9.856;2022-10-26T01:58:42;101397.31;;;8.97;100.00
52839;BME280;39219;53.678;9.856;2022-10-26T02:04:07;101392.91;;;9.00;100.00
52839;BME280;39219;53.678;9.856;2022-10-26T02:06:44;101391.97;;;9.08;100.00
52839;BME280;39219;53.678;9.856;2022-10-26T02:09:19;101393.75;;;9.09;100.00
52839;BME280;39219;53.678;9.856;2022-10-26T02:11:51;101389.28;;;9.14;100.00
52839;BME280;39219;53.678;9.856;2022-10-26T02:14:21;101391.06;;;9.10;100.00
52839;BME280;39219;53.678;9.856;2022-10-26T02:16:54;101399.00;;;9.15;100.00
52839;BME280;39219;53.678;9.856;2022-10-26T02:19:31;101399.00;;;9.10;100.00
52839;BME280;39219;53.678;9.856;2022-10-26T02:22:03;101399.91;;;9.06;100.00
52839;BME280;39219;53.678;9.856;2022-10-26T02:24:33;101398.19;;;9.03;100.00
52839;BME280;39219;53.678;9.856;2022-10-26T02:27:03;101392.03;;;8.97;100.00
52839;BME280;39219;53.678;9.856;2022-10-26T02:29:32;101399.13;;;8.96;100.00
52839;BME280;39219;53.678;9.856;2022-10-26T02:32:01;101394.72;;;8.92;100.00
52839;BME280;39219;53.678;9.856;2022-10-26T02:34:29;101397.44;;;8.84;100.00
52839;BME280;39219;53.678;9.856;2022-10-26T02:36:59;101392.09;;;8.89;100.00
52839;BME280;39219;53.678;9.856;2022-10-26T02:39:30;101391.16;;;8.95;100.00
52839;BME280;39219;53.678;9.856;2022-10-26T02:42:00;101390.25;;;9.03;100.00
52839;BME280;39219;53.678;9.856;2022-10-26T02:44:30;101386.66;;;9.11;100.00
52839;BME280;39219;53.678;9.856;2022-10-26T02:46:58;101383.94;;;9.18;100.00
52839;BME280;39219;53.678;9.856;2022-10-26T02:49:26;101386.66;;;9.11;100.00
52839;BME280;39219;53.678;9.856;2022-10-26T02:52:00;101384.09;;;8.98;100.00
52839;BME280;39219;53.678;9.856;2022-10-26T02:54:32;101380.63;;;8.88;100.00
52839;BME280;39219;53.678;9.856;2022-10-26T02:57:04;101382.44;;;8.83;100.00
52839;BME280;39219;53.678;9.856;2022-10-26T02:59:36;101380.69;;;8.74;100.00
52839;BME280;39219;53.678;9.856;2022-10-26T03:02:06;101379.81;;;8.76;100.00
52839;BME280;39219;53.678;9.856;2022-10-26T03:04:34;101382.44;;;8.80;100.00
52839;BME280;39219;53.678;9.856;2022-10-26T03:07:01;101389.53;;;8.78;100.00
52839;BME280;39219;53.678;9.856;2022-10-26T03:09:27;101385.97;;;8.79;100.00
52839;BME280;39219;53.678;9.856;2022-10-26T03:11:54;101386.84;;;8.81;100.00
52839;BME280;39219;53.678;9.856;2022-10-26T03:14:21;101392.19;;;8.72;100.00
52839;BME280;39219;53.678;9.856;2022-10-26T03:16:47;101390.50;;;8.60;100.00
52839;BME280;39219;53.678;9.856;2022-10-26T03:19:14;101389.63;;;8.59;100.00
52839;BME280;39219;53.678;9.856;2022-10-26T03:21:41;101384.22;;;8.77;100.00
52839;BME280;39219;53.678;9.856;2022-10-26T03:24:08;101389.53;;;8.75;100.00
52839;BME280;39219;53.678;9.856;2022-10-26T03:26:35;101386.91;;;8.67;100.00
52839;BME280;39219;53.678;9.856;2022-10-26T03:29:01;101386.91;;;8.72;100.00
52839;BME280;39219;53.678;9.856;2022-10-26T03:31:28;101385.22;;;8.60;100.00
52839;BME280;39219;53.678;9.856;2022-10-26T03:33:54;101380.78;;;8.61;100.00
52839;BME280;39219;53.678;9.856;2022-10-26T03:36:21;101385.22;;;8.52;100.00
52839;BME280;39219;53.678;9.856;2022-10-26T03:38:49;101384.34;;;8.45;100.00
52839;BME280;39219;53.678;9.856;2022-10-26T03:41:15;101379.09;;;8.38;100.00
52839;BME280;39219;53.678;9.856;2022-10-26T03:43:41;101378.19;;;8.39;100.00
52839;BME280;39219;53.678;9.856;2022-10-26T03:46:08;101383.47;;;8.42;100.00
52839;BME280;39219;53.678;9.856;2022-10-26T03:48:34;101383.53;;;8.31;100.00
52839;BME280;39219;53.678;9.856;2022-10-26T03:51:01;101385.31;;;8.29;100.00
52839;BME280;39219;53.678;9.856;2022-10-26T03:53:27;101381.78;;;8.30;100.00
52839;BME280;39219;53.678;9.856;2022-10-26T03:55:55;101381.78;;;8.30;100.00
52839;BME280;39219;53.678;9.856;2022-10-26T03:58:21;101379.94;;;8.48;100.00
52839;BME280;39219;53.678;9.856;2022-10-26T04:00:48;101375.53;;;8.51;100.00
52839;BME280;39219;53.678;9.856;2022-10-26T04:03:14;101384.38;;;8.52;100.00
52839;BME280;39219;53.678;9.856;2022-10-26T04:05:41;101380.00;;;8.32;100.00
52839;BME280;39219;53.678;9.856;2022-10-26T04:08:07;101377.41;;;8.24;100.00
52839;BME280;39219;53.678;9.856;2022-10-26T04:10:34;101379.16;;;8.22;100.00
52839;BME280;39219;53.678;9.856;2022-10-26T04:13:02;101383.59;;;8.15;100.00
52839;BME280;39219;53.678;9.856;2022-10-26T04:15:28;101382.78;;;7.89;100.00
52839;BME280;39219;53.678;9.856;2022-10-26T04:17:55;101383.66;;;7.88;100.00
52839;BME280;39219;53.678;9.856;2022-10-26T04:20:22;101384.53;;;7.93;100.00
52839;BME280;39219;53.678;9.856;2022-10-26T04:22:56;101376.56;;;7.96;100.00
52839;BME280;39219;53.678;9.856;2022-10-26T04:25:22;101379.22;;;7.96;100.00
52839;BME280;39219;53.678;9.856;2022-10-26T04:27:49;101371.31;;;7.91;100.00
52839;BME280;39219;53.678;9.856;2022-10-26T04:30:17;101366.94;;;7.82;100.00
52839;BME280;39219;53.678;9.856;2022-10-26T04:32:43;101367.81;;;7.80;100.00
52839;BME280;39219;53.678;9.856;2022-10-26T04:35:09;101373.97;;;7.87;100.00
52839;BME280;39219;53.678;9.856;2022-10-26T04:37:36;101371.31;;;7.90;100.00
52839;BME280;39219;53.678;9.856;2022-10-26T04:40:03;101371.31;;;7.91;100.00
52839;BME280;39219;53.678;9.856;2022-10-26T04:42:29;101373.03;;;7.97;100.00
52839;BME280;39219;53.678;9.856;2022-10-26T04:44:58;101370.38;;;8.03;100.00
52839;BME280;39219;53.678;9.856;2022-10-26T04:47:26;101373.03;;;8.08;100.00
52839;BME280;39219;53.678;9.856;2022-10-26T04:49:52;101370.34;;;8.12;100.00
52839;BME280;39219;53.678;9.856;2022-10-26T04:52:18;101374.78;;;8.13;100.00
52839;BME280;39219;53.678;9.856;2022-10-26T04:54:45;101364.22;;;8.09;100.00
52839;BME280;39219;53.678;9.856;2022-10-26T04:57:11;101372.16;;;8.09;100.00
52839;BME280;39219;53.678;9.856;2022-10-26T04:59:38;101359.78;;;8.12;100.00
52839;BME280;39219;53.678;9.856;2022-10-26T05:02:04;101366.88;;;8.06;100.00
52839;BME280;39219;53.678;9.856;2022-10-26T05:04:32;101360.72;;;7.96;100.00
52839;BME280;39219;53.678;9.856;2022-10-26T05:06:58;101372.25;;;7.70;100.00
52839;BME280;39219;53.678;9.856;2022-10-26T05:09:25;101367.84;;;7.41;100.00
52839;BME280;39219;53.678;9.856;2022-10-26T05:11:51;101370.50;;;7.55;100.00
52839;BME280;39219;53.678;9.856;2022-10-26T05:14:17;101364.31;;;7.70;100.00
52839;BME280;39219;53.678;9.856;2022-10-26T05:16:44;101367.81;;;7.64;100.00
52839;BME280;39219;53.678;9.856;2022-10-26T05:19:10;101359.06;;;7.50;100.00
52839;BME280;39219;53.678;9.856;2022-10-26T05:21:38;101359.94;;;7.49;100.00
52839;BME280;39219;53.678;9.856;2022-10-26T05:24:05;101359.03;;;7.51;100.00
52839;BME280;39219;53.678;9.856;2022-10-26T05:26:32;101357.28;;;7.56;100.00
52839;BME280;39219;53.678;9.856;2022-10-26T05:28:58;101363.47;;;7.60;100.00
52839;BME280;39219;53.678;9.856;2022-10-26T05:31:25;101366.09;;;7.55;100.00
52839;BME280;39219;53.678;9.856;2022-10-26T05:33:51;101371.38;;;7.49;100.00
52839;BME280;39219;53.678;9.856;2022-10-26T05:36:18;101357.28;;;7.53;100.00
52839;BME280;39219;53.678;9.856;2022-10-26T05:38:45;101361.66;;;7.68;100.00
52839;BME280;39219;53.678;9.856;2022-10-26T05:41:12;101359.00;;;7.89;100.00
52839;BME280;39219;53.678;9.856;2022-10-26T05:43:39;101364.25;;;7.90;100.00
52839;BME280;39219;53.678;9.856;2022-10-26T05:46:05;101369.50;;;8.04;100.00
52839;BME280;39219;53.678;9.856;2022-10-26T05:48:31;101370.38;;;8.08;100.00
52839;BME280;39219;53.678;9.856;2022-10-26T05:50:58;101363.28;;;8.18;100.00
52839;BME280;39219;53.678;9.856;2022-10-26T05:53:25;101368.59;;;8.18;100.00
52839;BME280;39219;53.678;9.856;2022-10-26T05:55:53;101372.09;;;8.26;100.00
52839;BME280;39219;53.678;9.856;2022-10-26T05:58:20;101373.00;;;8.17;100.00
52839;BME280;39219;53.678;9.856;2022-10-26T06:00:59;101373.88;;;8.11;100.00
52839;BME280;39219;53.678;9.856;2022-10-26T06:03:39;101377.41;;;8.24;100.00
52839;BME280;39219;53.678;9.856;2022-10-26T06:06:10;101373.88;;;8.21;100.00
52839;BME280;39219;53.678;9.856;2022-10-26T06:08:38;101379.16;;;8.22;100.00
52839;BME280;39219;53.678;9.856;2022-10-26T06:11:09;101380.00;;;8.29;100.00
52839;BME280;39219;53.678;9.856;2022-10-26T06:13:36;101383.53;;;8.29;100.00
52839;BME280;39219;53.678;9.856;2022-10-26T06:16:16;101381.81;;;8.25;100.00
52839;BME280;39219;53.678;9.856;2022-10-26T06:18:51;101386.25;;;8.17;100.00
52839;BME280;39219;53.678;9.856;2022-10-26T06:21:29;101388.84;;;8.22;100.00
52839;BME280;39219;53.678;9.856;2022-10-26T06:24:04;101381.78;;;8.27;100.00
52839;BME280;39219;53.678;9.856;2022-10-26T06:26:39;101383.56;;;8.26;100.00
52839;BME280;39219;53.678;9.856;2022-10-26T06:29:16;101381.78;;;8.24;100.00
52839;BME280;39219;53.678;9.856;2022-10-26T06:31:44;101386.22;;;8.15;100.00
52839;BME280;39219;53.678;9.856;2022-10-26T06:34:13;101384.47;;;8.18;100.00
52839;BME280;39219;53.678;9.856;2022-10-26T06:36:41;101390.63;;;8.17;100.00
52839;BME280;39219;53.678;9.856;2022-10-26T06:39:09;101390.63;;;8.23;100.00
52839;BME280;39219;53.678;9.856;2022-10-26T06:41:39;101392.38;;;8.21;100.00
52839;BME280;39219;53.678;9.856;2022-10-26T06:44:10;101391.47;;;8.29;100.00
52839;BME280;39219;53.678;9.856;2022-10-26T06:46:40;101397.63;;;8.39;100.00
52839;BME280;39219;53.678;9.856;2022-10-26T06:49:14;101393.19;;;8.49;100.00
52839;BME280;39219;53.678;9.856;2022-10-26T06:51:48;101398.47;;;8.57;100.00
52839;BME280;39219;53.678;9.856;2022-10-26T06:54:20;101395.75;;;8.63;100.00
52839;BME280;39219;53.678;9.856;2022-10-26T06:56:48;101404.53;;;8.71;100.00
52839;BME280;39219;53.678;9.856;2022-10-26T06:59:27;101401.84;;;8.81;100.00
52839;BME280;39219;53.678;9.856;2022-10-26T07:01:55;101403.59;;;8.89;100.00
52839;BME280;39219;53.678;9.856;2022-10-26T07:04:22;101407.00;;;9.09;100.00
52839;BME280;39219;53.678;9.856;2022-10-26T07:06:48;101402.50;;;9.20;100.00
52839;BME280;39219;53.678;9.856;2022-10-26T07:09:15;101406.75;;;9.41;100.00
52839;BME280;39219;53.678;9.856;2022-10-26T07:11:41;101409.28;;;9.54;100.00
52839;BME280;39219;53.678;9.856;2022-10-26T07:14:09;101408.28;;;9.64;100.00
52839;BME280;39219;53.678;9.856;2022-10-26T07:16:35;101415.25;;;9.79;100.00
52839;BME280;39219;53.678;9.856;2022-10-26T07:19:02;101419.47;;;9.99;100.00
52839;BME280;39219;53.678;9.856;2022-10-26T07:21:28;101423.75;;;10.14;100.00
52839;BME280;39219;53.678;9.856;2022-10-26T07:23:54;101419.09;;;10.31;100.00
52839;BME280;39219;53.678;9.856;2022-10-26T07:26:21;101426.91;;;10.47;100.00
52839;BME280;39219;53.678;9.856;2022-10-26T07:28:49;101420.25;;;10.85;100.00
52839;BME280;39219;53.678;9.856;2022-10-26T07:31:17;101416.00;;;11.33;100.00
52839;BME280;39219;53.678;9.856;2022-10-26T07:33:44;101420.47;;;11.84;100.00
52839;BME280;39219;53.678;9.856;2022-10-26T07:36:11;101417.97;;;12.23;100.00
52839;BME280;39219;53.678;9.856;2022-10-26T07:38:37;101425.69;;;12.80;100.00
52839;BME280;39219;53.678;9.856;2022-10-26T07:41:05;101430.38;;;13.47;100.00
52839;BME280;39219;53.678;9.856;2022-10-26T07:43:31;101430.47;;;14.12;100.00
52839;BME280;39219;53.678;9.856;2022-10-26T07:45:58;101425.69;;;14.86;100.00
52839;BME280;39219;53.678;9.856;2022-10-26T07:48:25;101433.59;;;15.19;100.00
52839;BME280;39219;53.678;9.856;2022-10-26T07:50:52;101442.97;;;15.60;100.00
52839;BME280;39219;53.678;9.856;2022-10-26T07:53:18;101432.84;;;16.22;100.00
52839;BME280;39219;53.678;9.856;2022-10-26T07:55:51;101427.03;;;16.82;100.00
52839;BME280;39219;53.678;9.856;2022-10-26T07:58:18;101431.56;;;17.04;99.64
52839;BME280;39219;53.678;9.856;2022-10-26T08:00:47;101430.84;;;17.44;94.88
52839;BME280;39219;53.678;9.856;2022-10-26T08:03:14;101438.59;;;17.73;85.52
52839;BME280;39219;53.678;9.856;2022-10-26T08:05:42;101435.41;;;18.06;84.81
52839;BME280;39219;53.678;9.856;2022-10-26T08:08:08;101446.94;;;18.08;79.49
52839;BME280;39219;53.678;9.856;2022-10-26T08:10:34;101442.81;;;17.79;78.63
52839;BME280;39219;53.678;9.856;2022-10-26T08:13:01;101448.03;;;18.25;83.00
52839;BME280;39219;53.678;9.856;2022-10-26T08:15:27;101453.19;;;18.69;73.98
52839;BME280;39219;53.678;9.856;2022-10-26T08:17:54;101454.91;;;18.89;75.29
52839;BME280;39219;53.678;9.856;2022-10-26T08:20:20;101467.50;;;19.27;72.70
52839;BME280;39219;53.678;9.856;2022-10-26T08:22:48;101465.41;;;19.34;73.72
52839;BME280;39219;53.678;9.856;2022-10-26T08:25:14;101471.47;;;19.20;71.64
52839;BME280;39219;53.678;9.856;2022-10-26T08:27:41;101473.34;;;19.54;72.80
52839;BME280;39219;53.678;9.856;2022-10-26T08:30:08;101467.00;;;19.56;70.00
52839;BME280;39219;53.678;9.856;2022-10-26T08:32:34;101461.09;;;19.66;71.97
52839;BME280;39219;53.678;9.856;2022-10-26T08:35:01;101466.47;;;19.49;70.49
52839;BME280;39219;53.678;9.856;2022-10-26T08:37:27;101461.78;;;19.35;70.46
52839;BME280;39219;53.678;9.856;2022-10-26T08:39:55;101451.19;;;19.13;69.75
52839;BME280;39219;53.678;9.856;2022-10-26T08:42:28;101455.41;;;18.99;72.77
52839;BME280;39219;53.678;9.856;2022-10-26T08:45:00;101448.94;;;19.03;73.94
52839;BME280;39219;53.678;9.856;2022-10-26T08:47:30;101441.66;;;19.05;72.21
52839;BME280;39219;53.678;9.856;2022-10-26T08:50:02;101440.78;;;18.46;73.53
52839;BME280;39219;53.678;9.856;2022-10-26T08:52:35;101434.34;;;18.50;75.44
52839;BME280;39219;53.678;9.856;2022-10-26T08:55:12;101432.03;;;18.22;74.24
52839;BME280;39219;53.678;9.856;2022-10-26T08:57:41;101430.97;;;18.05;77.42
52839;BME280;39219;53.678;9.856;2022-10-26T09:00:11;101429.72;;;17.71;80.92
52839;BME280;39219;53.678;9.856;2022-10-26T09:02:40;101424.19;;;17.53;82.38
52839;BME280;39219;53.678;9.856;2022-10-26T09:05:13;101418.50;;;17.82;84.05
52839;BME280;39219;53.678;9.856;2022-10-26T09:07:47;101422.09;;;17.82;82.10
52839;BME280;39219;53.678;9.856;2022-10-26T09:10:24;101411.25;;;17.84;82.30
52839;BME280;39219;53.678;9.856;2022-10-26T09:13:02;101413.22;;;17.80;80.69
52839;BME280;39219;53.678;9.856;2022-10-26T09:15:38;101415.91;;;17.80;84.27
52839;BME280;39219;53.678;9.856;2022-10-26T09:18:18;101403.84;;;17.48;85.09
52839;BME280;39219;53.678;9.856;2022-10-26T09:20:56;101407.19;;;16.86;84.55
52839;BME280;39219;53.678;9.856;2022-10-26T09:23:38;101398.81;;;17.17;87.16
52839;BME280;39219;53.678;9.856;2022-10-26T09:26:13;101413.66;;;17.26;88.67
52839;BME280;39219;53.678;9.856;2022-10-26T09:28:40;101410.13;;;17.26;87.95
52839;BME280;39219;53.678;9.856;2022-10-26T09:31:12;101409.16;;;17.49;88.25
52839;BME280;39219;53.678;9.856;2022-10-26T09:33:40;101413.25;;;17.58;89.87
52839;BME280;39219;53.678;9.856;2022-10-26T09:36:08;101410.75;;;17.53;86.98
52839;BME280;39219;53.678;9.856;2022-10-26T09:38:41;101419.72;;;17.31;90.80
52839;BME280;39219;53.678;9.856;2022-10-26T09:41:22;101420.25;;;17.19;86.54
52839;BME280;39219;53.678;9.856;2022-10-26T09:43:54;101419.44;;;17.17;88.79
52839;BME280;39219;53.678;9.856;2022-10-26T09:46:26;101416.03;;;17.34;90.49
52839;BME280;39219;53.678;9.856;2022-10-26T09:48:56;101416.25;;;17.50;88.98
52839;BME280;39219;53.678;9.856;2022-10-26T09:51:24;101416.94;;;17.55;88.46
52839;BME280;39219;53.678;9.856;2022-10-26T09:53:52;101421.06;;;17.42;85.09
52839;BME280;39219;53.678;9.856;2022-10-26T09:56:21;101428.00;;;17.25;86.55
52839;BME280;39219;53.678;9.856;2022-10-26T09:58:51;101423.88;;;17.39;88.76
52839;BME280;39219;53.678;9.856;2022-10-26T10:01:28;101417.28;;;17.48;88.03
52839;BME280;39219;53.678;9.856;2022-10-26T10:04:16;101420.19;;;17.64;86.54
52839;BME280;39219;53.678;9.856;2022-10-26T10:06:45;101429.59;;;17.74;85.14
52839;BME280;39219;53.678;9.856;2022-10-26T10:09:13;101424.56;;;17.44;85.37
52839;BME280;39219;53.678;9.856;2022-10-26T10:11:43;101420.63;;;17.30;85.60
52839;BME280;39219;53.678;9.856;2022-10-26T10:14:15;101418.72;;;17.34;86.23
52839;BME280;39219;53.678;9.856;2022-10-26T10:16:48;101415.13;;;17.56;88.08
52839;BME280;39219;53.678;9.856;2022-10-26T10:19:21;101415.19;;;17.54;84.78
52839;BME280;39219;53.678;9.856;2022-10-26T10:21:49;101421.97;;;17.63;85.94
52839;BME280;39219;53.678;9.856;2022-10-26T10:24:22;101425.22;;;17.71;85.63
52839;BME280;39219;53.678;9.856;2022-10-26T10:26:57;101424.63;;;17.85;85.09
52839;BME280;39219;53.678;9.856;2022-10-26T10:29:25;101430.59;;;17.92;85.38
52839;BME280;39219;53.678;9.856;2022-10-26T10:31:55;101431.41;;;17.94;85.81
52839;BME280;39219;53.678;9.856;2022-10-26T10:34:22;101432.38;;;18.14;85.48
52839;BME280;39219;53.678;9.856;2022-10-26T10:36:48;101431.91;;;18.25;82.96
52839;BME280;39219;53.678;9.856;2022-10-26T10:39:35;101433.25;;;18.14;81.50
52839;BME280;39219;53.678;9.856;2022-10-26T10:42:13;101435.53;;;18.03;82.10
52839;BME280;39219;53.678;9.856;2022-10-26T10:44:42;101434.13;;;18.15;82.29
52839;BME280;39219;53.678;9.856;2022-10-26T10:47:21;101429.22;;;18.25;81.44
52839;BME280;39219;53.678;9.856;2022-10-26T10:49:57;101439.19;;;18.42;80.59
52839;BME280;39219;53.678;9.856;2022-10-26T10:52:28;101430.81;;;18.29;82.48
52839;BME280;39219;53.678;9.856;2022-10-26T10:55:14;101425.88;;;18.39;81.25
52839;BME280;39219;53.678;9.856;2022-10-26T10:57:53;101427.50;;;18.43;79.76
52839;BME280;39219;53.678;9.856;2022-10-26T11:00:23;101426.94;;;18.55;78.27
52839;BME280;39219;53.678;9.856;2022-10-26T11:03:01;101430.84;;;18.67;82.96
52839;BME280;39219;53.678;9.856;2022-10-26T11:05:39;101435.28;;;18.68;79.75
52839;BME280;39219;53.678;9.856;2022-10-26T11:08:11;101425.94;;;18.77;78.74
52839;BME280;39219;53.678;9.856;2022-10-26T11:10:44;101425.13;;;18.75;77.79
52839;BME280;39219;53.678;9.856;2022-10-26T11:13:17;101427.88;;;18.73;77.77
52839;BME280;39219;53.678;9.856;2022-10-26T11:15:47;101429.63;;;18.74;80.39
52839;BME280;39219;53.678;9.856;2022-10-26T11:18:18;101430.94;;;18.85;79.33
52839;BME280;39219;53.678;9.856;2022-10-26T11:20:49;101429.19;;;18.84;78.02
52839;BME280;39219;53.678;9.856;2022-10-26T11:23:21;101425.72;;;19.01;79.92
52839;BME280;39219;53.678;9.856;2022-10-26T11:25:52;101415.53;;;19.07;79.92
52839;BME280;39219;53.678;9.856;2022-10-26T11:28:32;101414.63;;;19.26;78.32
52839;BME280;39219;53.678;9.856;2022-10-26T11:31:04;101417.75;;;19.36;77.86
52839;BME280;39219;53.678;9.856;2022-10-26T11:33:35;101420.47;;;19.53;76.94
52839;BME280;39219;53.678;9.856;2022-10-26T11:36:08;101422.44;;;19.67;74.72
52839;BME280;39219;53.678;9.856;2022-10-26T11:38:41;101424.78;;;19.38;76.29
52839;BME280;39219;53.678;9.856;2022-10-26T11:41:15;101422.66;;;19.08;76.15
52839;BME280;39219;53.678;9.856;2022-10-26T11:43:47;101425.72;;;19.01;80.33
52839;BME280;39219;53.678;9.856;2022-10-26T11:46:17;101426.03;;;19.31;76.66
52839;BME280;39219;53.678;9.856;2022-10-26T11:48:50;101426.63;;;19.38;79.60
52839;BME280;39219;53.678;9.856;2022-10-26T11:51:35;101426.06;;;19.49;74.51
52839;BME280;39219;53.678;9.856;2022-10-26T11:54:08;101427.09;;;19.81;77.20
52839;BME280;39219;53.678;9.856;2022-10-26T11:56:40;101429.25;;;19.92;77.15
52839;BME280;39219;53.678;9.856;2022-10-26T11:59:16;101430.69;;;20.00;76.39
52839;BME280;39219;53.678;9.856;2022-10-26T12:01:43;101434.41;;;19.79;75.82
52839;BME280;39219;53.678;9.856;2022-10-26T12:04:10;101423.22;;;19.52;78.19
52839;BME280;39219;53.678;9.856;2022-10-26T12:06:37;101430.91;;;19.77;76.84
52839;BME280;39219;53.678;9.856;2022-10-26T12:09:07;101433.31;;;20.01;75.90
52839;BME280;39219;53.678;9.856;2022-10-26T12:11:40;101440.03;;;20.10;76.08
52839;BME280;39219;53.678;9.856;2022-10-26T12:14:18;101435.44;;;19.94;75.12
52839;BME280;39219;53.678;9.856;2022-10-26T12:16:53;101439.56;;;19.84;74.12
52839;BME280;39219;53.678;9.856;2022-10-26T12:19:23;101436.16;;;19.80;75.25
52839;BME280;39219;53.678;9.856;2022-10-26T12:21:52;101439.78;;;19.62;70.79
52839;BME280;39219;53.678;9.856;2022-10-26T12:24:27;101441.13;;;19.53;74.39
52839;BME280;39219;53.678;9.856;2022-10-26T12:26:58;101438.75;;;19.64;75.71
52839;BME280;39219;53.678;9.856;2022-10-26T12:29:37;101437.41;;;19.73;77.35
52839;BME280;39219;53.678;9.856;2022-10-26T12:35:30;101442.91;;;19.89;78.28
52839;BME280;39219;53.678;9.856;2022-10-26T12:37:58;101448.13;;;19.92;75.29
52839;BME280;39219;53.678;9.856;2022-10-26T12:40:41;101439.34;;;20.06;72.58
52839;BME280;39219;53.678;9.856;2022-10-26T12:43:34;101440.03;;;20.10;71.32
52839;BME280;39219;53.678;9.856;2022-10-26T12:52:19;101449.03;;;20.44;73.24
52839;BME280;39219;53.678;9.856;2022-10-26T12:55:17;101436.03;;;20.35;72.25
52839;BME280;39219;53.678;9.856;2022-10-26T12:57:51;101451.75;;;20.44;74.20
52839;BME280;39219;53.678;9.856;2022-10-26T13:00:24;101450.03;;;20.59;74.99
52839;BME280;39219;53.678;9.856;2022-10-26T13:03:00;101446.09;;;20.65;74.54
52839;BME280;39219;53.678;9.856;2022-10-26T13:05:45;101453.69;;;20.74;72.63
52839;BME280;39219;53.678;9.856;2022-10-26T13:08:22;101451.31;;;20.68;72.43
52839;BME280;39219;53.678;9.856;2022-10-26T13:11:01;101451.88;;;20.75;72.91
52839;BME280;39219;53.678;9.856;2022-10-26T13:13:29;101444.91;;;20.70;71.99
52839;BME280;39219;53.678;9.856;2022-10-26T13:15:58;101449.75;;;20.64;71.48